Time;durP1;ratioP1;P1;durP2;ratioP2;P2;SDS_P1;SDS_P2;PMS_P1;PMS_P2;Temp;Humidity;BMP_temperature;BMP_pressure;BME280_temperature;BME280_humidity;BME280_pressure;Samples;Min_cycle;Max_cycle;Signal;HPM_P1;HPM_P2
2021/03/19 00:02:44;;;;;;;15.60;7.13;;;;;;;;;;10583887;27;20215;-69
2021/03/19 00:07:49;;;;;;;16.70;8.90;;;;;;;;;;10570654;27;20314;-68
2021/03/19 00:12:51;;;;;;;17.43;8.70;;;;;;;;;;10585887;27;20226;-69
2021/03/19 00:17:53;;;;;;;17.73;9.47;;;;;;;;;;10577407;27;20183;-69
2021/03/19 00:23:04;;;;;;;16.13;8.70;;;;;;;;;;10559955;27;20764;-70
2021/03/19 00:28:06;;;;;;;16.17;9.00;;;;;;;;;;10575993;27;20282;-70
2021/03/19 00:33:08;;;;;;;14.63;8.33;;;;;;;;;;10592438;27;20222;-69
2021/03/19 00:38:11;;;;;;;15.50;7.43;;;;;;;;;;10566728;27;20619;-70
2021/03/19 00:43:13;;;;;;;16.33;7.93;;;;;;;;;;10552844;27;20291;-70
2021/03/19 00:48:14;;;;;;;18.40;9.33;;;;;;;;;;10556510;27;20199;-68
2021/03/19 00:53:26;;;;;;;16.73;9.03;;;;;;;;;;10550302;27;20651;-68
2021/03/19 00:58:28;;;;;;;16.30;8.63;;;;;;;;;;10571012;27;20589;-70
2021/03/19 01:03:30;;;;;;;16.93;9.27;;;;;;;;;;10577376;27;20222;-69
2021/03/19 01:08:33;;;;;;;17.60;10.30;;;;;;;;;;10579863;27;20726;-70
2021/03/19 01:13:35;;;;;;;18.63;10.07;;;;;;;;;;10573903;27;20230;-69
2021/03/19 01:18:36;;;;;;;15.33;8.57;;;;;;;;;;10579484;27;20211;-69
2021/03/19 01:23:48;;;;;;;16.03;8.47;;;;;;;;;;10581206;27;20294;-70
2021/03/19 01:28:50;;;;;;;17.10;9.60;;;;;;;;;;10558842;27;20523;-70
2021/03/19 01:33:58;;;;;;;8.80;3.77;;;;;;;;;;10578121;27;20222;-70
2021/03/19 01:39:00;;;;;;;15.83;8.63;;;;;;;;;;10562691;27;20220;-69
2021/03/19 01:44:02;;;;;;;19.50;9.53;;;;;;;;;;10560485;27;20219;-69
2021/03/19 01:49:24;;;;;;;17.00;8.90;;;;;;;;;;10570612;27;20226;-70
2021/03/19 01:54:44;;;;;;;18.23;9.30;;;;;;;;;;10576198;27;20655;-69
2021/03/19 02:00:04;;;;;;;20.50;10.33;;;;;;;;;;10579786;27;20230;-69
2021/03/19 02:05:24;;;;;;;17.87;10.20;;;;;;;;;;10574282;27;20219;-69
2021/03/19 02:10:44;;;;;;;17.63;8.60;;;;;;;;;;10576507;27;20658;-69
2021/03/19 02:16:04;;;;;;;10.87;4.80;;;;;;;;;;10567351;27;20637;-70
2021/03/19 02:21:24;;;;;;;20.23;10.93;;;;;;;;;;10560836;28;20280;-70
2021/03/19 02:26:48;;;;;;;16.63;8.90;;;;;;;;;;10571904;28;20291;-68
2021/03/19 02:31:53;;;;;;;17.23;8.47;;;;;;;;;;10577653;28;20222;-68
2021/03/19 02:36:55;;;;;;;16.67;8.87;;;;;;;;;;10576590;28;20617;-69
2021/03/19 02:41:57;;;;;;;18.33;9.40;;;;;;;;;;10568757;28;20668;-69
2021/03/19 02:47:00;;;;;;;16.83;9.67;;;;;;;;;;10575107;28;20313;-69
2021/03/19 02:52:02;;;;;;;15.53;7.97;;;;;;;;;;10575178;28;20219;-69
2021/03/19 02:57:04;;;;;;;16.73;8.33;;;;;;;;;;10572061;28;20195;-70
2021/03/19 03:02:06;;;;;;;14.80;7.53;;;;;;;;;;10577580;28;20243;-68
2021/03/19 03:07:18;;;;;;;16.73;8.73;;;;;;;;;;10577594;28;20520;-69
2021/03/19 03:12:20;;;;;;;17.07;9.43;;;;;;;;;;10577315;28;20651;-68
2021/03/19 03:17:23;;;;;;;17.50;8.50;;;;;;;;;;10551908;28;20198;-68
2021/03/19 03:22:25;;;;;;;17.43;8.63;;;;;;;;;;10580499;27;20218;-69
2021/03/19 03:27:26;;;;;;;17.90;8.60;;;;;;;;;;10589856;27;20659;-69
2021/03/19 03:32:29;;;;;;;16.73;8.07;;;;;;;;;;10565357;27;20649;-69
2021/03/19 03:37:31;;;;;;;16.53;8.17;;;;;;;;;;10566251;27;20191;-69
2021/03/19 03:42:34;;;;;;;18.03;8.93;;;;;;;;;;10579133;27;20536;-69
2021/03/19 03:47:37;;;;;;;17.00;9.47;;;;;;;;;;10552498;27;20662;-69
2021/03/19 03:52:39;;;;;;;18.50;8.37;;;;;;;;;;10575821;27;20285;-68
2021/03/19 03:57:41;;;;;;;17.43;8.97;;;;;;;;;;10576864;27;20187;-68
2021/03/19 04:02:44;;;;;;;16.73;8.77;;;;;;;;;;10562347;27;20218;-69
2021/03/19 04:07:45;;;;;;;16.27;8.37;;;;;;;;;;10580424;27;20214;-68
2021/03/19 04:12:47;;;;;;;18.40;8.93;;;;;;;;;;10574750;27;20210;-68
2021/03/19 04:17:53;;;;;;;18.03;9.43;;;;;;;;;;10551950;27;20187;-70
2021/03/19 04:22:55;;;;;;;18.07;9.63;;;;;;;;;;10547322;27;20210;-68
2021/03/19 04:27:58;;;;;;;16.30;8.10;;;;;;;;;;10569936;27;20214;-69
2021/03/19 04:33:01;;;;;;;18.57;9.60;;;;;;;;;;10573121;27;20570;-70
2021/03/19 04:38:04;;;;;;;18.57;8.93;;;;;;;;;;10568586;27;20702;-70
2021/03/19 04:43:05;;;;;;;18.13;9.23;;;;;;;;;;10578978;27;20232;-69
2021/03/19 04:48:08;;;;;;;18.77;8.93;;;;;;;;;;10568583;27;20239;-68
2021/03/19 04:53:10;;;;;;;17.23;8.77;;;;;;;;;;10552331;27;20212;-68
2021/03/19 04:58:12;;;;;;;17.60;9.23;;;;;;;;;;10579044;27;20300;-69
2021/03/19 05:03:14;;;;;;;18.20;8.90;;;;;;;;;;10584776;27;20577;-69
2021/03/19 05:08:16;;;;;;;16.57;8.53;;;;;;;;;;10553376;27;20218;-68
2021/03/19 05:13:18;;;;;;;16.50;7.90;;;;;;;;;;10575365;27;20559;-69
2021/03/19 05:18:20;;;;;;;15.83;8.07;;;;;;;;;;10548237;27;20231;-69
2021/03/19 05:23:23;;;;;;;16.50;8.13;;;;;;;;;;10542711;28;20999;-68
2021/03/19 05:28:24;;;;;;;15.57;8.23;;;;;;;;;;10553585;27;20316;-70
2021/03/19 05:33:27;;;;;;;15.13;7.50;;;;;;;;;;10551418;28;20233;-69
2021/03/19 05:38:29;;;;;;;15.93;8.10;;;;;;;;;;10540064;28;20732;-70
2021/03/19 05:43:33;;;;;;;15.77;8.67;;;;;;;;;;10552097;27;20388;-68
2021/03/19 05:48:40;;;;;;;14.90;7.73;;;;;;;;;;10568817;27;20326;-68
2021/03/19 05:53:43;;;;;;;17.70;8.73;;;;;;;;;;10563093;27;20215;-68
2021/03/19 05:58:45;;;;;;;16.50;8.67;;;;;;;;;;10575344;27;20265;-69
2021/03/19 06:03:51;;;;;;;15.60;8.27;;;;;;;;;;10554183;27;20217;-70
2021/03/19 06:08:53;;;;;;;16.83;8.63;;;;;;;;;;10574699;27;20240;-68
2021/03/19 06:13:56;;;;;;;16.33;8.03;;;;;;;;;;10574473;27;20214;-70
2021/03/19 06:19:00;;;;;;;19.50;8.60;;;;;;;;;;10578145;28;20277;-69
2021/03/19 06:24:07;;;;;;;18.97;9.53;;;;;;;;;;10575774;28;20616;-70
2021/03/19 06:29:14;;;;;;;16.93;8.67;;;;;;;;;;10549844;28;20229;-70
2021/03/19 06:34:22;;;;;;;16.27;7.87;;;;;;;;;;10558027;28;20227;-69
2021/03/19 06:39:26;;;;;;;16.73;8.10;;;;;;;;;;10560969;28;20191;-70
2021/03/19 06:44:28;;;;;;;15.63;8.30;;;;;;;;;;10561581;28;20314;-69
2021/03/19 06:49:45;;;;;;;16.50;8.77;;;;;;;;;;10550060;27;20896;-69
2021/03/19 06:54:48;;;;;;;10.73;4.57;;;;;;;;;;10551116;27;20293;-70
2021/03/19 06:59:50;;;;;;;16.10;8.47;;;;;;;;;;10579682;27;20636;-69
2021/03/19 07:04:59;;;;;;;16.73;8.23;;;;;;;;;;10568541;27;20215;-70
2021/03/19 07:10:08;;;;;;;15.53;7.50;;;;;;;;;;10578005;27;20269;-70
2021/03/19 07:15:18;;;;;;;15.63;8.77;;;;;;;;;;10553134;27;20613;-70
2021/03/19 07:20:37;;;;;;;15.03;7.77;;;;;;;;;;10565852;27;20268;-70
2021/03/19 07:25:52;;;;;;;14.73;8.07;;;;;;;;;;10560830;27;20317;-70
2021/03/19 07:31:04;;;;;;;14.83;7.73;;;;;;;;;;10553839;27;20268;-70
2021/03/19 07:36:14;;;;;;;16.00;8.37;;;;;;;;;;10571266;27;20195;-70
2021/03/19 07:41:21;;;;;;;14.50;8.57;;;;;;;;;;10557784;27;20539;-71
2021/03/19 07:46:29;;;;;;;17.20;9.13;;;;;;;;;;10584109;27;20294;-70
2021/03/19 07:51:39;;;;;;;17.07;9.10;;;;;;;;;;10556144;27;20318;-70
2021/03/19 07:56:48;;;;;;;17.37;9.00;;;;;;;;;;10590216;27;20187;-70
2021/03/19 08:01:55;;;;;;;15.73;8.73;;;;;;;;;;10576558;27;20684;-71
2021/03/19 08:07:01;;;;;;;15.27;8.73;;;;;;;;;;10579634;27;20235;-69
2021/03/19 08:12:07;;;;;;;17.70;9.77;;;;;;;;;;10554079;27;20265;-69
2021/03/19 08:17:18;;;;;;;15.80;8.67;;;;;;;;;;10571667;27;20188;-70
2021/03/19 08:22:23;;;;;;;16.33;9.03;;;;;;;;;;10581572;27;20273;-72
2021/03/19 08:27:34;;;;;;;15.50;9.23;;;;;;;;;;10573339;27;20548;-70
2021/03/19 08:32:53;;;;;;;18.50;9.63;;;;;;;;;;10553520;27;20264;-69
2021/03/19 08:38:00;;;;;;;14.93;9.50;;;;;;;;;;10556850;27;20278;-70
2021/03/19 08:43:04;;;;;;;18.33;11.60;;;;;;;;;;10549632;27;20226;-70
2021/03/19 08:48:11;;;;;;;16.30;9.77;;;;;;;;;;10554808;28;20223;-69
2021/03/19 08:53:15;;;;;;;16.60;9.20;;;;;;;;;;10563403;27;20297;-69
2021/03/19 08:58:46;;;;;;;15.93;9.67;;;;;;;;;;10564866;27;20236;-71
2021/03/19 09:03:53;;;;;;;15.77;8.83;;;;;;;;;;10577453;27;20319;-69
2021/03/19 09:08:57;;;;;;;15.87;9.67;;;;;;;;;;10581266;27;20213;-69
2021/03/19 09:14:18;;;;;;;16.17;9.47;;;;;;;;;;10589065;27;20207;-70
2021/03/19 09:19:49;;;;;;;15.17;8.53;;;;;;;;;;10567527;27;20282;-69
2021/03/19 09:25:06;;;;;;;15.80;10.27;;;;;;;;;;10493291;27;20207;-70
2021/03/19 09:30:09;;;;;;;17.40;10.90;;;;;;;;;;10558383;27;20268;-71
2021/03/19 09:35:32;;;;;;;14.47;9.10;;;;;;;;;;10575613;27;20244;-69
2021/03/19 09:40:45;;;;;;;16.33;10.20;;;;;;;;;;10553995;27;20307;-70
2021/03/19 09:46:01;;;;;;;17.03;10.47;;;;;;;;;;10555776;27;20243;-69
2021/03/19 09:51:05;;;;;;;17.93;11.00;;;;;;;;;;10571254;27;20217;-69
2021/03/19 09:56:21;;;;;;;16.00;9.90;;;;;;;;;;10570695;27;20218;-70
2021/03/19 10:01:31;;;;;;;15.57;10.20;;;;;;;;;;10580878;27;20669;-68
2021/03/19 10:06:34;;;;;;;13.10;8.23;;;;;;;;;;10560941;27;20278;-69
2021/03/19 10:11:49;;;;;;;12.93;8.00;;;;;;;;;;10559831;27;20300;-70
2021/03/19 10:17:08;;;;;;;12.83;7.70;;;;;;;;;;10552815;28;20604;-70
2021/03/19 10:22:10;;;;;;;13.80;8.87;;;;;;;;;;10577467;27;20225;-70
2021/03/19 10:27:13;;;;;;;14.43;8.37;;;;;;;;;;10564347;27;20206;-70
2021/03/19 10:32:16;;;;;;;14.37;8.63;;;;;;;;;;10584889;28;20214;-70
2021/03/19 10:37:28;;;;;;;13.27;8.20;;;;;;;;;;10545401;28;20678;-70
2021/03/19 10:42:33;;;;;;;13.83;7.67;;;;;;;;;;10575465;28;20226;-70
2021/03/19 10:47:38;;;;;;;12.93;8.33;;;;;;;;;;10556869;28;20595;-71
2021/03/19 10:52:42;;;;;;;12.50;7.73;;;;;;;;;;10545630;28;20210;-70
2021/03/19 10:57:45;;;;;;;11.87;7.70;;;;;;;;;;10574955;28;20240;-69
2021/03/19 11:02:54;;;;;;;12.47;7.63;;;;;;;;;;10560503;28;20275;-70
2021/03/19 11:07:56;;;;;;;13.93;8.13;;;;;;;;;;10551598;28;20309;-70
2021/03/19 11:13:17;;;;;;;13.20;8.60;;;;;;;;;;10563003;28;20249;-70
2021/03/19 11:18:22;;;;;;;11.47;7.23;;;;;;;;;;10558859;28;20218;-70
2021/03/19 11:23:35;;;;;;;14.50;9.30;;;;;;;;;;10549465;28;20233;-70
2021/03/19 11:28:39;;;;;;;12.27;8.43;;;;;;;;;;10565511;28;20219;-69
2021/03/19 11:33:52;;;;;;;15.03;9.80;;;;;;;;;;10549697;28;20262;-70
2021/03/19 11:38:54;;;;;;;13.63;8.57;;;;;;;;;;10565110;27;20273;-69
2021/03/19 11:43:56;;;;;;;10.83;6.63;;;;;;;;;;10605969;27;20214;-70
2021/03/19 11:48:59;;;;;;;11.20;7.73;;;;;;;;;;10581065;27;20202;-70
2021/03/19 11:54:17;;;;;;;11.07;7.67;;;;;;;;;;10585953;27;20218;-69
2021/03/19 11:59:22;;;;;;;11.53;8.53;;;;;;;;;;10580688;27;20274;-70
2021/03/19 12:04:25;;;;;;;12.00;8.87;;;;;;;;;;10540816;27;22752;-70
2021/03/19 12:09:28;;;;;;;12.43;8.90;;;;;;;;;;10569193;27;20202;-70
2021/03/19 12:14:29;;;;;;;12.53;9.13;;;;;;;;;;10572897;27;20291;-70
2021/03/19 12:19:32;;;;;;;13.73;9.33;;;;;;;;;;10566786;27;20202;-70
2021/03/19 12:24:33;;;;;;;12.20;8.47;;;;;;;;;;10575520;27;20932;-70
2021/03/19 12:29:35;;;;;;;9.70;7.17;;;;;;;;;;10568726;27;20673;-70
2021/03/19 12:34:39;;;;;;;9.17;6.80;;;;;;;;;;10564888;27;20254;-71
2021/03/19 12:39:41;;;;;;;10.10;7.47;;;;;;;;;;10566238;27;20218;-70
2021/03/19 12:44:42;;;;;;;10.60;7.03;;;;;;;;;;10577659;27;20578;-70
2021/03/19 12:49:45;;;;;;;9.40;6.33;;;;;;;;;;10569104;27;20224;-70
2021/03/19 12:54:47;;;;;;;9.53;6.23;;;;;;;;;;10570955;27;20285;-70
2021/03/19 12:59:49;;;;;;;9.07;5.70;;;;;;;;;;10573083;27;20222;-69
2021/03/19 13:04:51;;;;;;;10.13;6.77;;;;;;;;;;10558592;27;20218;-70
2021/03/19 13:09:53;;;;;;;11.93;7.87;;;;;;;;;;10564381;27;20620;-70
2021/03/19 13:14:55;;;;;;;11.73;7.90;;;;;;;;;;10580099;27;20239;-70
2021/03/19 13:19:57;;;;;;;12.10;8.00;;;;;;;;;;10557089;27;20304;-70
2021/03/19 13:24:58;;;;;;;9.80;5.90;;;;;;;;;;10589293;27;20689;-71
2021/03/19 13:30:00;;;;;;;9.17;5.33;;;;;;;;;;10552468;27;20210;-68
2021/03/19 13:35:03;;;;;;;9.07;4.53;;;;;;;;;;10564691;27;20243;-70
2021/03/19 13:40:05;;;;;;;9.23;5.70;;;;;;;;;;10563903;27;20275;-70
2021/03/19 13:45:07;;;;;;;8.40;5.00;;;;;;;;;;10581891;27;20256;-70
2021/03/19 13:50:10;;;;;;;9.20;5.33;;;;;;;;;;10557500;27;20594;-70
2021/03/19 13:55:12;;;;;;;7.80;4.97;;;;;;;;;;10579418;27;20542;-72
2021/03/19 14:00:15;;;;;;;10.47;5.33;;;;;;;;;;10568945;27;20214;-70
2021/03/19 14:05:18;;;;;;;7.93;4.30;;;;;;;;;;10568213;27;20211;-70
2021/03/19 14:10:21;;;;;;;7.43;4.17;;;;;;;;;;10577079;27;20219;-69
2021/03/19 14:15:25;;;;;;;6.93;3.77;;;;;;;;;;10569442;27;20172;-70
2021/03/19 14:20:29;;;;;;;7.37;3.63;;;;;;;;;;10562180;27;20642;-70
2021/03/19 14:25:31;;;;;;;8.50;4.43;;;;;;;;;;10576563;28;20257;-70
2021/03/19 14:30:34;;;;;;;7.20;3.87;;;;;;;;;;10577637;28;20215;-70
2021/03/19 14:35:36;;;;;;;8.13;4.40;;;;;;;;;;10572251;28;20195;-70
2021/03/19 14:40:38;;;;;;;9.37;5.60;;;;;;;;;;10565008;28;20249;-70
2021/03/19 14:45:40;;;;;;;8.13;4.93;;;;;;;;;;10572976;28;20210;-70
2021/03/19 14:50:43;;;;;;;8.53;5.00;;;;;;;;;;10552315;28;20288;-69
2021/03/19 14:55:45;;;;;;;9.47;4.70;;;;;;;;;;10565835;28;20180;-69
2021/03/19 15:00:47;;;;;;;6.83;3.83;;;;;;;;;;10553551;28;20238;-70
2021/03/19 15:05:50;;;;;;;6.97;3.47;;;;;;;;;;10549670;28;20210;-70
2021/03/19 15:10:53;;;;;;;5.73;3.20;;;;;;;;;;10576863;28;20583;-70
2021/03/19 15:15:54;;;;;;;4.83;2.40;;;;;;;;;;10573902;27;20188;-69
2021/03/19 15:20:59;;;;;;;7.17;2.40;;;;;;;;;;10575010;27;20222;-71
2021/03/19 15:26:03;;;;;;;5.90;3.20;;;;;;;;;;10569759;27;20211;-71
2021/03/19 15:31:04;;;;;;;7.83;3.70;;;;;;;;;;10573464;27;20210;-71
2021/03/19 15:36:09;;;;;;;7.13;4.03;;;;;;;;;;10550494;27;20183;-71
2021/03/19 15:41:10;;;;;;;7.27;4.17;;;;;;;;;;10559972;27;20211;-72
2021/03/19 15:46:12;;;;;;;7.83;4.20;;;;;;;;;;10581565;27;20221;-70
2021/03/19 15:51:16;;;;;;;8.47;4.63;;;;;;;;;;10559145;27;20218;-71
2021/03/19 15:56:18;;;;;;;8.50;4.60;;;;;;;;;;10579681;27;20263;-72
2021/03/19 16:01:19;;;;;;;8.33;4.93;;;;;;;;;;10567206;27;20215;-71
2021/03/19 16:06:22;;;;;;;7.47;4.27;;;;;;;;;;10578359;27;20218;-72
2021/03/19 16:11:25;;;;;;;7.33;4.20;;;;;;;;;;10572229;27;20226;-72
2021/03/19 16:16:26;;;;;;;8.87;4.70;;;;;;;;;;10555122;27;20801;-72
2021/03/19 16:21:29;;;;;;;9.50;4.97;;;;;;;;;;10559563;27;20279;-72
2021/03/19 16:26:30;;;;;;;9.40;5.60;;;;;;;;;;10552470;27;20287;-69
2021/03/19 16:31:34;;;;;;;11.10;5.93;;;;;;;;;;10562516;27;20316;-70
2021/03/19 16:36:36;;;;;;;10.63;5.30;;;;;;;;;;10558421;27;20203;-70
2021/03/19 16:41:38;;;;;;;9.87;6.20;;;;;;;;;;10558766;27;20781;-72
2021/03/19 16:46:40;;;;;;;9.73;4.97;;;;;;;;;;10555836;27;20601;-70
2021/03/19 16:51:44;;;;;;;9.20;5.30;;;;;;;;;;10571473;27;20294;-69
2021/03/19 16:56:46;;;;;;;8.40;4.67;;;;;;;;;;10575832;27;20217;-70
2021/03/19 17:01:48;;;;;;;9.00;4.90;;;;;;;;;;10573876;27;20215;-71
2021/03/19 17:06:51;;;;;;;9.50;4.87;;;;;;;;;;10572426;27;20586;-70
2021/03/19 17:11:53;;;;;;;8.93;5.07;;;;;;;;;;10572274;27;20260;-69
2021/03/19 17:16:54;;;;;;;9.13;5.00;;;;;;;;;;10571102;27;20182;-70
2021/03/19 17:21:57;;;;;;;9.03;4.97;;;;;;;;;;10557074;27;20218;-68
2021/03/19 17:26:58;;;;;;;9.37;5.37;;;;;;;;;;10577746;27;20245;-71
2021/03/19 17:32:00;;;;;;;9.33;5.27;;;;;;;;;;10548936;27;20246;-70
2021/03/19 17:37:03;;;;;;;9.83;5.00;;;;;;;;;;10554743;27;20209;-71
2021/03/19 17:42:05;;;;;;;10.27;5.43;;;;;;;;;;10563541;27;20566;-69
2021/03/19 17:47:07;;;;;;;10.20;5.83;;;;;;;;;;10556667;27;20786;-70
2021/03/19 17:52:10;;;;;;;8.47;4.73;;;;;;;;;;10546729;28;20314;-72
2021/03/19 17:57:12;;;;;;;8.10;4.50;;;;;;;;;;10559792;27;20183;-69
2021/03/19 18:02:17;;;;;;;10.63;5.50;;;;;;;;;;10563650;27;20229;-70
2021/03/19 18:07:20;;;;;;;9.00;5.00;;;;;;;;;;10568387;27;20218;-71
2021/03/19 18:12:22;;;;;;;9.73;5.27;;;;;;;;;;10563739;27;20222;-69
2021/03/19 18:17:24;;;;;;;9.53;5.37;;;;;;;;;;10571286;27;20535;-70
2021/03/19 18:22:27;;;;;;;9.77;5.60;;;;;;;;;;10559443;28;20215;-72
2021/03/19 18:27:30;;;;;;;10.03;5.80;;;;;;;;;;10578654;28;20215;-70
2021/03/19 18:32:32;;;;;;;9.00;5.37;;;;;;;;;;10575092;28;20592;-70
2021/03/19 18:37:36;;;;;;;8.87;4.83;;;;;;;;;;10582681;28;20664;-72
2021/03/19 18:42:39;;;;;;;10.10;5.17;;;;;;;;;;10576594;28;20250;-70
2021/03/19 18:47:40;;;;;;;9.17;5.00;;;;;;;;;;10563925;27;20651;-72
2021/03/19 18:52:44;;;;;;;10.17;5.70;;;;;;;;;;10573254;27;20750;-73
2021/03/19 18:57:45;;;;;;;9.27;5.70;;;;;;;;;;10564193;28;20183;-73
2021/03/19 19:02:47;;;;;;;9.63;5.77;;;;;;;;;;10573902;27;20768;-71
2021/03/19 19:07:50;;;;;;;9.87;5.90;;;;;;;;;;10574148;27;20238;-71
2021/03/19 19:12:52;;;;;;;12.03;6.30;;;;;;;;;;10583591;27;20239;-71
2021/03/19 19:17:55;;;;;;;8.83;5.47;;;;;;;;;;10546517;27;20673;-73
2021/03/19 19:22:58;;;;;;;9.90;5.87;;;;;;;;;;10573105;27;20210;-69
2021/03/19 19:28:00;;;;;;;10.90;6.80;;;;;;;;;;10552276;27;20219;-72
2021/03/19 19:33:02;;;;;;;11.20;5.90;;;;;;;;;;10578493;27;20210;-72
2021/03/19 19:38:06;;;;;;;10.53;6.07;;;;;;;;;;10566363;27;20175;-73
2021/03/19 19:43:07;;;;;;;10.30;5.97;;;;;;;;;;10565974;27;20226;-71
2021/03/19 19:48:09;;;;;;;11.23;6.23;;;;;;;;;;10563372;27;20687;-72
2021/03/19 19:53:13;;;;;;;10.83;5.57;;;;;;;;;;10544311;28;20219;-71
2021/03/19 19:58:20;;;;;;;9.80;5.47;;;;;;;;;;10587535;27;20687;-73
2021/03/19 20:03:31;;;;;;;9.83;5.50;;;;;;;;;;10563820;27;20746;-73
2021/03/19 20:08:34;;;;;;;10.43;5.73;;;;;;;;;;10569851;27;20293;-73
2021/03/19 20:13:36;;;;;;;9.97;5.70;;;;;;;;;;10574617;27;20302;-72
2021/03/19 20:18:39;;;;;;;12.60;6.20;;;;;;;;;;10562749;27;20195;-72
2021/03/19 20:23:42;;;;;;;10.80;5.47;;;;;;;;;;10566667;27;20285;-74
2021/03/19 20:28:45;;;;;;;10.80;6.07;;;;;;;;;;10576166;28;20239;-73
2021/03/19 20:33:48;;;;;;;10.07;6.17;;;;;;;;;;10578147;27;20214;-71
2021/03/19 20:38:50;;;;;;;10.43;5.93;;;;;;;;;;10583278;27;20248;-73
2021/03/19 20:43:52;;;;;;;11.63;6.33;;;;;;;;;;10574025;27;20314;-73
2021/03/19 20:48:54;;;;;;;11.43;6.80;;;;;;;;;;10570088;27;20214;-73
2021/03/19 20:53:57;;;;;;;11.77;6.33;;;;;;;;;;10572171;27;20215;-73
2021/03/19 20:58:59;;;;;;;12.10;6.60;;;;;;;;;;10581397;27;20286;-73
2021/03/19 21:04:02;;;;;;;12.53;6.67;;;;;;;;;;10578230;27;20214;-72
2021/03/19 21:09:07;;;;;;;11.77;6.50;;;;;;;;;;10555995;27;20194;-70
2021/03/19 21:14:09;;;;;;;11.93;6.43;;;;;;;;;;10583218;27;20210;-71
2021/03/19 21:19:11;;;;;;;11.63;6.43;;;;;;;;;;10573825;27;20239;-71
2021/03/19 21:24:14;;;;;;;10.80;6.30;;;;;;;;;;10567474;27;20208;-70
2021/03/19 21:29:16;;;;;;;10.97;6.60;;;;;;;;;;10569550;28;20222;-73
2021/03/19 21:34:21;;;;;;;12.00;6.03;;;;;;;;;;10564732;28;20307;-71
2021/03/19 21:39:28;;;;;;;12.47;6.20;;;;;;;;;;10568894;27;20275;-72
2021/03/19 21:44:30;;;;;;;12.43;6.73;;;;;;;;;;10568440;27;20291;-72
2021/03/19 21:49:32;;;;;;;12.13;6.63;;;;;;;;;;10567717;27;20562;-72
2021/03/19 21:54:36;;;;;;;13.40;6.40;;;;;;;;;;10564354;28;20751;-73
2021/03/19 21:59:38;;;;;;;13.40;6.43;;;;;;;;;;10567856;27;20562;-70
2021/03/19 22:04:39;;;;;;;13.33;7.03;;;;;;;;;;10560968;27;20273;-73
2021/03/19 22:09:47;;;;;;;11.30;6.40;;;;;;;;;;10563387;28;20301;-70
2021/03/19 22:14:48;;;;;;;13.03;6.63;;;;;;;;;;10563557;27;20290;-73
2021/03/19 22:19:50;;;;;;;11.37;5.73;;;;;;;;;;10563109;28;20191;-74
2021/03/19 22:24:52;;;;;;;10.47;5.70;;;;;;;;;;10547307;28;20297;-72
2021/03/19 22:29:54;;;;;;;12.23;6.50;;;;;;;;;;10564145;28;20342;-72
2021/03/19 22:34:56;;;;;;;12.20;6.30;;;;;;;;;;10567323;28;20286;-70
2021/03/19 22:40:12;;;;;;;12.33;6.33;;;;;;;;;;10554116;28;20201;-72
2021/03/19 22:45:14;;;;;;;11.87;6.37;;;;;;;;;;10557867;28;20763;-72
2021/03/19 22:50:17;;;;;;;12.60;6.47;;;;;;;;;;10562796;28;20226;-71
2021/03/19 22:55:22;;;;;;;11.93;6.50;;;;;;;;;;10565259;28;20197;-69
2021/03/19 23:00:26;;;;;;;11.93;6.47;;;;;;;;;;10565419;28;20214;-69
2021/03/19 23:05:28;;;;;;;11.30;6.30;;;;;;;;;;10549986;28;20211;-70
2021/03/19 23:10:35;;;;;;;12.43;6.13;;;;;;;;;;10550055;28;20223;-69
2021/03/19 23:15:40;;;;;;;12.17;6.00;;;;;;;;;;10559912;28;20195;-70
2021/03/19 23:20:43;;;;;;;11.47;6.37;;;;;;;;;;10556776;28;20292;-71
2021/03/19 23:25:45;;;;;;;11.77;5.77;;;;;;;;;;10565206;28;20559;-70
2021/03/19 23:30:49;;;;;;;12.70;6.27;;;;;;;;;;10563205;28;20232;-70
2021/03/19 23:35:51;;;;;;;12.23;6.50;;;;;;;;;;10562554;27;20304;-70
2021/03/19 23:40:57;;;;;;;12.10;6.37;;;;;;;;;;10552772;27;20218;-68
2021/03/19 23:46:00;;;;;;;12.67;6.53;;;;;;;;;;10576148;27;20226;-70
2021/03/19 23:51:04;;;;;;;12.73;6.43;;;;;;;;;;10551652;28;20590;-70
2021/03/19 23:56:07;;;;;;;12.17;6.13;;;;;;;;;;10577716;27;20202;-69
